N125HM KPDX-KBIL
Flight info
| Callsign | N125HM |
|---|---|
| Flight time | 1h 24m |
| Altitude | 35000 |
| Route | LAVAA7 LAVAA BYRCH CRAZI4 |
| Aircraft | C750/M-SBDE3FGHRWXY/L |
Departure
| Time | 2026-04-25 20:41 |
|---|---|
| Airport | Portland International Airport (KPDX) |
Arrival
| Time | 2026-04-25 22:06 |
|---|---|
| Airport | Billings Logan International Airport (KBIL) |
| Time | Latitude | Longitude | Altitude | Speed | Heading |
|---|---|---|---|---|---|
| 2026-04-25 20:35 | 45.58525 | -122.57860 | 25 ft | 0 kts | 117° |
| 2026-04-25 20:38 | 45.58522 | -122.57848 | 25 ft | 5 kts | 105° |
| 2026-04-25 20:38 | 45.58512 | -122.57787 | 25 ft | 6 kts | 90° |
| 2026-04-25 20:38 | 45.58548 | -122.57708 | 25 ft | 11 kts | 44° |
| 2026-04-25 20:38 | 45.58590 | -122.57595 | 25 ft | 13 kts | 113° |
| 2026-04-25 20:39 | 45.58540 | -122.57477 | 25 ft | 14 kts | 119° |
| 2026-04-25 20:39 | 45.58482 | -122.57328 | 25 ft | 18 kts | 119° |
| 2026-04-25 20:39 | 45.58417 | -122.57165 | 25 ft | 18 kts | 119° |
| 2026-04-25 20:39 | 45.58395 | -122.57108 | 25 ft | 18 kts | 119° |
| 2026-04-25 20:40 | 45.58345 | -122.56919 | 25 ft | 0 kts | 72° |
| 2026-04-25 20:40 | 45.58345 | -122.56918 | 25 ft | 0 kts | 70° |
| 2026-04-25 20:40 | 45.58373 | -122.56875 | 25 ft | 14 kts | 29° |
| 2026-04-25 20:41 | 45.58456 | -122.56926 | 25 ft | 19 kts | 302° |
| 2026-04-25 20:41 | 45.58662 | -122.57474 | 25 ft | 114 kts | 298° |
| 2026-04-25 20:41 | 45.59182 | -122.58804 | 308 ft | 183 kts | 299° |
| 2026-04-25 20:41 | 45.59826 | -122.60564 | 1056 ft | 206 kts | 297° |
| 2026-04-25 20:42 | 45.60477 | -122.62456 | 2040 ft | 215 kts | 297° |
| 2026-04-25 20:42 | 45.61154 | -122.64487 | 3227 ft | 229 kts | 297° |
| 2026-04-25 20:42 | 45.61661 | -122.66720 | 4410 ft | 247 kts | 287° |
| 2026-04-25 20:42 | 45.62416 | -122.68979 | 5573 ft | 260 kts | 305° |
| 2026-04-25 20:43 | 45.63404 | -122.71329 | 6764 ft | 270 kts | 302° |
| 2026-04-25 20:43 | 45.64386 | -122.73741 | 7745 ft | 276 kts | 302° |
| 2026-04-25 20:43 | 45.65409 | -122.76269 | 8746 ft | 281 kts | 302° |
| 2026-04-25 20:43 | 45.66664 | -122.78671 | 9742 ft | 280 kts | 325° |
| 2026-04-25 20:44 | 45.68515 | -122.79629 | 10725 ft | 275 kts | 359° |
| 2026-04-25 20:44 | 45.70357 | -122.78988 | 11662 ft | 274 kts | 29° |
| 2026-04-25 20:44 | 45.72045 | -122.77572 | 12585 ft | 276 kts | 27° |
| 2026-04-25 20:44 | 45.73801 | -122.76196 | 13466 ft | 280 kts | 28° |
| 2026-04-25 20:45 | 45.75330 | -122.74329 | 14280 ft | 288 kts | 54° |
| 2026-04-25 20:45 | 45.75997 | -122.71477 | 14767 ft | 308 kts | 83° |
| 2026-04-25 20:45 | 45.75810 | -122.68227 | 15144 ft | 325 kts | 90° |
| 2026-04-25 20:45 | 45.75760 | -122.64883 | 15683 ft | 331 kts | 88° |
| 2026-04-25 20:46 | 45.75708 | -122.61510 | 16301 ft | 334 kts | 87° |
| 2026-04-25 20:46 | 45.75672 | -122.58076 | 16920 ft | 337 kts | 87° |
| 2026-04-25 20:46 | 45.75635 | -122.54570 | 17511 ft | 340 kts | 88° |
| 2026-04-25 20:46 | 45.75597 | -122.51015 | 18110 ft | 343 kts | 88° |
| 2026-04-25 20:47 | 45.75553 | -122.47388 | 18710 ft | 346 kts | 88° |
| 2026-04-25 20:47 | 45.75510 | -122.43703 | 19312 ft | 349 kts | 88° |
| 2026-04-25 20:47 | 45.75462 | -122.39918 | 19895 ft | 353 kts | 88° |
| 2026-04-25 20:47 | 45.75416 | -122.36113 | 20467 ft | 357 kts | 88° |
| 2026-04-25 20:48 | 45.75366 | -122.32199 | 21210 ft | 365 kts | 88° |
| 2026-04-25 20:48 | 45.75313 | -122.28239 | 22192 ft | 365 kts | 88° |
| 2026-04-25 20:48 | 45.75259 | -122.24149 | 22920 ft | 368 kts | 88° |
| 2026-04-25 20:48 | 45.75203 | -122.20127 | 23520 ft | 372 kts | 88° |
| 2026-04-25 20:49 | 45.75149 | -122.16279 | 24097 ft | 376 kts | 88° |
| 2026-04-25 20:49 | 45.75092 | -122.12424 | 24707 ft | 378 kts | 88° |
| 2026-04-25 20:49 | 45.75035 | -122.08588 | 25293 ft | 381 kts | 88° |
| 2026-04-25 20:49 | 45.74978 | -122.04720 | 25854 ft | 384 kts | 88° |
| 2026-04-25 20:50 | 45.74915 | -122.00803 | 26421 ft | 386 kts | 88° |
| 2026-04-25 20:50 | 45.74856 | -121.96904 | 26931 ft | 389 kts | 88° |
| 2026-04-25 20:50 | 45.74792 | -121.92937 | 27445 ft | 392 kts | 88° |
| 2026-04-25 20:50 | 45.74727 | -121.88924 | 27975 ft | 395 kts | 88° |
| 2026-04-25 20:51 | 45.74681 | -121.84954 | 28451 ft | 397 kts | 86° |
| 2026-04-25 20:51 | 45.74920 | -121.80950 | 28905 ft | 398 kts | 81° |
| 2026-04-25 20:51 | 45.75183 | -121.76849 | 29381 ft | 402 kts | 82° |
| 2026-04-25 20:51 | 45.75438 | -121.72704 | 29853 ft | 405 kts | 82° |
| 2026-04-25 20:52 | 45.75677 | -121.68655 | 30309 ft | 407 kts | 82° |
| 2026-04-25 20:52 | 45.75760 | -121.67245 | 30477 ft | 408 kts | 82° |
| 2026-04-25 20:52 | 45.76166 | -121.60299 | 31128 ft | 413 kts | 82° |
| 2026-04-25 20:52 | 45.76408 | -121.56108 | 31479 ft | 416 kts | 82° |
| 2026-04-25 20:53 | 45.76651 | -121.51900 | 31776 ft | 419 kts | 82° |
| 2026-04-25 20:53 | 45.76897 | -121.47598 | 32072 ft | 422 kts | 82° |
| 2026-04-25 20:53 | 45.77138 | -121.43359 | 32351 ft | 425 kts | 83° |
| 2026-04-25 20:53 | 45.77383 | -121.39017 | 32606 ft | 428 kts | 83° |
| 2026-04-25 20:54 | 45.77620 | -121.34768 | 32885 ft | 430 kts | 83° |
| 2026-04-25 20:54 | 45.77863 | -121.30392 | 33169 ft | 433 kts | 83° |
| 2026-04-25 20:54 | 45.78108 | -121.26000 | 33381 ft | 435 kts | 84° |
| 2026-04-25 20:54 | 45.78347 | -121.21651 | 33614 ft | 438 kts | 84° |
| 2026-04-25 20:55 | 45.78588 | -121.17191 | 33866 ft | 440 kts | 84° |
| 2026-04-25 20:55 | 45.78828 | -121.12755 | 34081 ft | 442 kts | 83° |
| 2026-04-25 20:55 | 45.79071 | -121.08237 | 34321 ft | 445 kts | 84° |
| 2026-04-25 20:55 | 45.79306 | -121.03814 | 34620 ft | 445 kts | 84° |
| 2026-04-25 20:56 | 45.79544 | -120.99308 | 34857 ft | 448 kts | 83° |
| 2026-04-25 20:56 | 45.79786 | -120.94745 | 34877 ft | 457 kts | 84° |
| 2026-04-25 20:56 | 45.80268 | -120.85461 | 34898 ft | 473 kts | 84° |
| 2026-04-25 20:57 | 45.80757 | -120.75848 | 34885 ft | 487 kts | 84° |
| 2026-04-25 20:57 | 45.81257 | -120.65930 | 34880 ft | 500 kts | 84° |
| 2026-04-25 20:58 | 45.81754 | -120.55832 | 34901 ft | 507 kts | 84° |
| 2026-04-25 20:58 | 45.82250 | -120.45587 | 34900 ft | 513 kts | 84° |
| 2026-04-25 20:59 | 45.82746 | -120.35191 | 34908 ft | 516 kts | 84° |
| 2026-04-25 20:59 | 45.83226 | -120.24844 | 34920 ft | 515 kts | 85° |
| 2026-04-25 21:00 | 45.83542 | -120.17950 | 34920 ft | 515 kts | 85° |
| 2026-04-25 21:01 | 45.84385 | -119.99052 | 34923 ft | 514 kts | 85° |
| 2026-04-25 21:01 | 45.84833 | -119.88745 | 34911 ft | 514 kts | 85° |
| 2026-04-25 21:02 | 45.85276 | -119.78381 | 34908 ft | 515 kts | 85° |
| 2026-04-25 21:02 | 45.85710 | -119.67924 | 34904 ft | 516 kts | 85° |
| 2026-04-25 21:03 | 45.86131 | -119.57566 | 34915 ft | 516 kts | 85° |
| 2026-04-25 21:03 | 45.86538 | -119.47308 | 34924 ft | 506 kts | 85° |
| 2026-04-25 21:04 | 45.86930 | -119.37225 | 34927 ft | 493 kts | 85° |
| 2026-04-25 21:04 | 45.87303 | -119.27433 | 34931 ft | 483 kts | 86° |
| 2026-04-25 21:05 | 45.87662 | -119.17790 | 34932 ft | 474 kts | 86° |
| 2026-04-25 21:05 | 45.88009 | -119.08249 | 34927 ft | 467 kts | 86° |
| 2026-04-25 21:06 | 45.88340 | -118.98903 | 34931 ft | 462 kts | 86° |
| 2026-04-25 21:06 | 45.88662 | -118.89636 | 34917 ft | 457 kts | 86° |
| 2026-04-25 21:07 | 45.88973 | -118.80440 | 34925 ft | 464 kts | 86° |
| 2026-04-25 21:07 | 45.89288 | -118.70969 | 34919 ft | 477 kts | 86° |
| 2026-04-25 21:08 | 45.89602 | -118.61199 | 34912 ft | 489 kts | 86° |
| 2026-04-25 21:08 | 45.89914 | -118.51250 | 34918 ft | 498 kts | 86° |
| 2026-04-25 21:09 | 45.90374 | -118.36001 | 34921 ft | 511 kts | 86° |
| 2026-04-25 21:09 | 45.90676 | -118.25689 | 34926 ft | 517 kts | 87° |
| 2026-04-25 21:10 | 45.90972 | -118.15144 | 34928 ft | 520 kts | 87° |
| 2026-04-25 21:10 | 45.91258 | -118.04702 | 34914 ft | 521 kts | 87° |
| 2026-04-25 21:11 | 45.91534 | -117.94209 | 34903 ft | 521 kts | 87° |
| 2026-04-25 21:11 | 45.91803 | -117.83654 | 34892 ft | 522 kts | 87° |
| 2026-04-25 21:12 | 45.92059 | -117.73169 | 34884 ft | 522 kts | 87° |
| 2026-04-25 21:12 | 45.92223 | -117.66237 | 34876 ft | 522 kts | 87° |
| 2026-04-25 21:13 | 45.92548 | -117.52225 | 34865 ft | 521 kts | 87° |
| 2026-04-25 21:13 | 45.92775 | -117.41737 | 34869 ft | 520 kts | 87° |
| 2026-04-25 21:14 | 45.92993 | -117.31243 | 34869 ft | 519 kts | 88° |
| 2026-04-25 21:14 | 45.93201 | -117.20826 | 34863 ft | 517 kts | 88° |
| 2026-04-25 21:15 | 45.93399 | -117.10441 | 34861 ft | 516 kts | 88° |
| 2026-04-25 21:15 | 45.93590 | -117.00002 | 34860 ft | 516 kts | 88° |
| 2026-04-25 21:16 | 45.93769 | -116.89671 | 34859 ft | 516 kts | 88° |
| 2026-04-25 21:16 | 45.93941 | -116.79289 | 34866 ft | 515 kts | 88° |
| 2026-04-25 21:17 | 45.94100 | -116.68924 | 34867 ft | 512 kts | 88° |
| 2026-04-25 21:17 | 45.94250 | -116.58665 | 34860 ft | 507 kts | 88° |
| 2026-04-25 21:18 | 45.94389 | -116.48497 | 34857 ft | 503 kts | 88° |
| 2026-04-25 21:18 | 45.94516 | -116.38483 | 34875 ft | 499 kts | 88° |
| 2026-04-25 21:19 | 45.94635 | -116.28456 | 34881 ft | 497 kts | 89° |
| 2026-04-25 21:19 | 45.94745 | -116.18461 | 34885 ft | 494 kts | 89° |
| 2026-04-25 21:20 | 45.94814 | -116.11830 | 34889 ft | 493 kts | 89° |
| 2026-04-25 21:20 | 45.94937 | -115.98657 | 34882 ft | 491 kts | 89° |
| 2026-04-25 21:21 | 45.95020 | -115.88774 | 34881 ft | 490 kts | 89° |
| 2026-04-25 21:21 | 45.95094 | -115.78933 | 34864 ft | 489 kts | 89° |
| 2026-04-25 21:22 | 45.95159 | -115.69138 | 34862 ft | 488 kts | 89° |
| 2026-04-25 21:22 | 45.95217 | -115.59280 | 34852 ft | 487 kts | 89° |
| 2026-04-25 21:23 | 45.95266 | -115.49455 | 34854 ft | 487 kts | 89° |
| 2026-04-25 21:23 | 45.95306 | -115.39659 | 34848 ft | 487 kts | 89° |
| 2026-04-25 21:24 | 45.95338 | -115.29889 | 34827 ft | 487 kts | 90° |
| 2026-04-25 21:24 | 45.95362 | -115.20105 | 34815 ft | 487 kts | 90° |
| 2026-04-25 21:25 | 45.95377 | -115.10275 | 34816 ft | 487 kts | 90° |
| 2026-04-25 21:25 | 45.95384 | -115.00475 | 34804 ft | 487 kts | 90° |
| 2026-04-25 21:26 | 45.95381 | -114.90674 | 34821 ft | 486 kts | 90° |
| 2026-04-25 21:26 | 45.95373 | -114.80911 | 34834 ft | 486 kts | 90° |
| 2026-04-25 21:27 | 45.95354 | -114.71101 | 34846 ft | 486 kts | 90° |
| 2026-04-25 21:27 | 45.95328 | -114.61330 | 34825 ft | 487 kts | 90° |
| 2026-04-25 21:28 | 45.95293 | -114.51514 | 34807 ft | 488 kts | 90° |
| 2026-04-25 21:28 | 45.95250 | -114.41741 | 34808 ft | 488 kts | 90° |
| 2026-04-25 21:29 | 45.95197 | -114.31898 | 34822 ft | 488 kts | 91° |
| 2026-04-25 21:29 | 45.95138 | -114.22101 | 34833 ft | 488 kts | 91° |
| 2026-04-25 21:30 | 45.95070 | -114.12246 | 34840 ft | 488 kts | 91° |
| 2026-04-25 21:30 | 45.95006 | -114.04095 | 34846 ft | 488 kts | 91° |
| 2026-04-25 21:31 | 45.94907 | -113.92637 | 34832 ft | 489 kts | 91° |
| 2026-04-25 21:31 | 45.94812 | -113.82783 | 34805 ft | 490 kts | 91° |
| 2026-04-25 21:32 | 45.94708 | -113.72881 | 34780 ft | 491 kts | 91° |
| 2026-04-25 21:32 | 45.94597 | -113.63040 | 34789 ft | 491 kts | 91° |
| 2026-04-25 21:33 | 45.94477 | -113.53133 | 34805 ft | 491 kts | 91° |
| 2026-04-25 21:33 | 45.94351 | -113.43334 | 34812 ft | 491 kts | 91° |
| 2026-04-25 21:34 | 45.94213 | -113.33429 | 34804 ft | 492 kts | 92° |
| 2026-04-25 21:34 | 45.94067 | -113.23510 | 34791 ft | 492 kts | 92° |
| 2026-04-25 21:35 | 45.93913 | -113.13642 | 34811 ft | 492 kts | 92° |
| 2026-04-25 21:35 | 45.93747 | -113.03680 | 34840 ft | 492 kts | 92° |
| 2026-04-25 21:36 | 45.93578 | -112.93866 | 34865 ft | 492 kts | 92° |
| 2026-04-25 21:36 | 45.93397 | -112.83920 | 34877 ft | 492 kts | 92° |
| 2026-04-25 21:37 | 45.93273 | -112.77307 | 34882 ft | 492 kts | 92° |
| 2026-04-25 21:37 | 45.93012 | -112.64099 | 34894 ft | 493 kts | 92° |
| 2026-04-25 21:38 | 45.92806 | -112.54193 | 34892 ft | 494 kts | 92° |
| 2026-04-25 21:38 | 45.92589 | -112.44222 | 34895 ft | 494 kts | 92° |
| 2026-04-25 21:39 | 45.92366 | -112.34309 | 34892 ft | 495 kts | 92° |
| 2026-04-25 21:39 | 45.92131 | -112.24296 | 34883 ft | 496 kts | 92° |
| 2026-04-25 21:40 | 45.91890 | -112.14359 | 34866 ft | 497 kts | 92° |
| 2026-04-25 21:40 | 45.91640 | -112.04386 | 34841 ft | 498 kts | 92° |
| 2026-04-25 21:41 | 45.91381 | -111.94419 | 34833 ft | 499 kts | 92° |
| 2026-04-25 21:41 | 45.91112 | -111.84389 | 34862 ft | 498 kts | 92° |
| 2026-04-25 21:42 | 45.90831 | -111.74300 | 34887 ft | 498 kts | 92° |
| 2026-04-25 21:42 | 45.90545 | -111.64314 | 34900 ft | 498 kts | 92° |
| 2026-04-25 21:43 | 45.90249 | -111.54319 | 34912 ft | 499 kts | 92° |
| 2026-04-25 21:43 | 45.89945 | -111.44287 | 34914 ft | 500 kts | 92° |
| 2026-04-25 21:44 | 45.89630 | -111.34214 | 34916 ft | 500 kts | 93° |
| 2026-04-25 21:45 | 45.89140 | -111.19085 | 34912 ft | 502 kts | 93° |
| 2026-04-25 21:45 | 45.88804 | -111.09028 | 34910 ft | 502 kts | 93° |
| 2026-04-25 21:46 | 45.89348 | -110.99000 | 34911 ft | 503 kts | 69° |
| 2026-04-25 21:46 | 45.91802 | -110.89610 | 34913 ft | 504 kts | 69° |
| 2026-04-25 21:47 | 45.94165 | -110.80019 | 34901 ft | 502 kts | 70° |
| 2026-04-25 21:47 | 45.96450 | -110.70654 | 34890 ft | 485 kts | 70° |
| 2026-04-25 21:48 | 45.98668 | -110.61529 | 34708 ft | 478 kts | 70° |
| 2026-04-25 21:48 | 45.99760 | -110.57030 | 34199 ft | 484 kts | 70° |
| 2026-04-25 21:48 | 46.00886 | -110.52369 | 33678 ft | 488 kts | 70° |
| 2026-04-25 21:48 | 46.02013 | -110.47694 | 33163 ft | 491 kts | 70° |
| 2026-04-25 21:49 | 46.03130 | -110.43045 | 32590 ft | 485 kts | 69° |
| 2026-04-25 21:49 | 46.04236 | -110.38435 | 31990 ft | 478 kts | 69° |
| 2026-04-25 21:49 | 46.05311 | -110.33953 | 31385 ft | 466 kts | 70° |
| 2026-04-25 21:49 | 46.06356 | -110.29589 | 30683 ft | 452 kts | 70° |
| 2026-04-25 21:50 | 46.07374 | -110.25332 | 29982 ft | 437 kts | 70° |
| 2026-04-25 21:50 | 46.08349 | -110.21242 | 29337 ft | 423 kts | 70° |
| 2026-04-25 21:50 | 46.09296 | -110.17256 | 28686 ft | 414 kts | 70° |
| 2026-04-25 21:50 | 46.09933 | -110.14584 | 28222 ft | 411 kts | 69° |
| 2026-04-25 21:51 | 46.11167 | -110.09381 | 27323 ft | 406 kts | 70° |
| 2026-04-25 21:51 | 46.12075 | -110.05544 | 26734 ft | 400 kts | 69° |
| 2026-04-25 21:51 | 46.12971 | -110.01756 | 26215 ft | 393 kts | 69° |
| 2026-04-25 21:51 | 46.13850 | -109.98021 | 25736 ft | 388 kts | 69° |
| 2026-04-25 21:52 | 46.14727 | -109.94305 | 25245 ft | 383 kts | 69° |
| 2026-04-25 21:52 | 46.15575 | -109.90696 | 24730 ft | 378 kts | 69° |
| 2026-04-25 21:52 | 46.16423 | -109.87087 | 24166 ft | 384 kts | 69° |
| 2026-04-25 21:52 | 46.17311 | -109.83311 | 23568 ft | 404 kts | 69° |
| 2026-04-25 21:53 | 46.18236 | -109.79362 | 22911 ft | 423 kts | 70° |
| 2026-04-25 21:53 | 46.19024 | -109.75179 | 22217 ft | 441 kts | 83° |
| 2026-04-25 21:53 | 46.18721 | -109.70776 | 22119 ft | 437 kts | 104° |
| 2026-04-25 21:53 | 46.17521 | -109.66685 | 21461 ft | 445 kts | 117° |
| 2026-04-25 21:54 | 46.16183 | -109.62618 | 20307 ft | 437 kts | 116° |
| 2026-04-25 21:54 | 46.14912 | -109.58717 | 19475 ft | 415 kts | 116° |
| 2026-04-25 21:54 | 46.13695 | -109.54936 | 18701 ft | 394 kts | 116° |
| 2026-04-25 21:54 | 46.12563 | -109.51417 | 18026 ft | 378 kts | 116° |
| 2026-04-25 21:55 | 46.11460 | -109.47984 | 17393 ft | 372 kts | 116° |
| 2026-04-25 21:55 | 46.10375 | -109.44624 | 16762 ft | 364 kts | 116° |
| 2026-04-25 21:55 | 46.09303 | -109.41295 | 16144 ft | 356 kts | 116° |
| 2026-04-25 21:55 | 46.08267 | -109.38084 | 15546 ft | 349 kts | 116° |
| 2026-04-25 21:56 | 46.07247 | -109.34927 | 14945 ft | 343 kts | 117° |
| 2026-04-25 21:56 | 46.06567 | -109.32825 | 14536 ft | 341 kts | 117° |
| 2026-04-25 21:56 | 46.05220 | -109.28664 | 13714 ft | 337 kts | 117° |
| 2026-04-25 21:56 | 46.04204 | -109.25537 | 13066 ft | 329 kts | 117° |
| 2026-04-25 21:57 | 46.03219 | -109.22514 | 12417 ft | 316 kts | 117° |
| 2026-04-25 21:57 | 46.02274 | -109.19605 | 11782 ft | 306 kts | 116° |
| 2026-04-25 21:57 | 46.01364 | -109.16815 | 11170 ft | 305 kts | 116° |
| 2026-04-25 21:57 | 46.00425 | -109.13928 | 10524 ft | 311 kts | 115° |
| 2026-04-25 21:58 | 45.99482 | -109.11039 | 9980 ft | 310 kts | 115° |
| 2026-04-25 21:58 | 45.98591 | -109.08296 | 9841 ft | 283 kts | 115° |
| 2026-04-25 21:58 | 45.97756 | -109.05743 | 9800 ft | 275 kts | 116° |
| 2026-04-25 21:58 | 45.96913 | -109.03174 | 9233 ft | 284 kts | 115° |
| 2026-04-25 21:59 | 45.96057 | -109.00549 | 8599 ft | 289 kts | 115° |
| 2026-04-25 21:59 | 45.95175 | -108.97871 | 8009 ft | 285 kts | 115° |
| 2026-04-25 21:59 | 45.94358 | -108.95374 | 7938 ft | 255 kts | 115° |
| 2026-04-25 22:00 | 45.92654 | -108.90999 | 7907 ft | 235 kts | 121° |
| 2026-04-25 22:00 | 45.91781 | -108.88927 | 7741 ft | 229 kts | 120° |
| 2026-04-25 22:00 | 45.90946 | -108.86950 | 7427 ft | 232 kts | 120° |
| 2026-04-25 22:00 | 45.90070 | -108.84875 | 6911 ft | 236 kts | 120° |
| 2026-04-25 22:01 | 45.89194 | -108.82806 | 6392 ft | 237 kts | 120° |
| 2026-04-25 22:01 | 45.88320 | -108.80735 | 5876 ft | 236 kts | 120° |
| 2026-04-25 22:01 | 45.87833 | -108.78565 | 5750 ft | 216 kts | 91° |
| 2026-04-25 22:01 | 45.87825 | -108.77824 | 5732 ft | 210 kts | 89° |
| 2026-04-25 22:02 | 45.87408 | -108.74607 | 5676 ft | 183 kts | 111° |
| 2026-04-25 22:02 | 45.86869 | -108.72963 | 5658 ft | 176 kts | 116° |
| 2026-04-25 22:02 | 45.86286 | -108.71428 | 5637 ft | 168 kts | 117° |
| 2026-04-25 22:02 | 45.85660 | -108.69879 | 5515 ft | 167 kts | 118° |
| 2026-04-25 22:03 | 45.85054 | -108.68409 | 5372 ft | 170 kts | 119° |
| 2026-04-25 22:03 | 45.84457 | -108.66924 | 5207 ft | 174 kts | 115° |
| 2026-04-25 22:03 | 45.83998 | -108.65297 | 5014 ft | 177 kts | 109° |
| 2026-04-25 22:03 | 45.83563 | -108.63686 | 4785 ft | 165 kts | 110° |
| 2026-04-25 22:04 | 45.83157 | -108.62247 | 4570 ft | 150 kts | 110° |
| 2026-04-25 22:04 | 45.82780 | -108.60887 | 4376 ft | 141 kts | 110° |
| 2026-04-25 22:04 | 45.82425 | -108.59613 | 4202 ft | 134 kts | 110° |
| 2026-04-25 22:04 | 45.82085 | -108.58394 | 4026 ft | 126 kts | 110° |
| 2026-04-25 22:05 | 45.81778 | -108.57216 | 3853 ft | 124 kts | 107° |
| 2026-04-25 22:05 | 45.81456 | -108.56062 | 3740 ft | 131 kts | 115° |
| 2026-04-25 22:05 | 45.81124 | -108.54939 | 3564 ft | 111 kts | 108° |
| 2026-04-25 22:05 | 45.80878 | -108.54031 | 3539 ft | 67 kts | 113° |
| 2026-04-25 22:06 | 45.80795 | -108.53754 | 3531 ft | 13 kts | 127° |
| 2026-04-25 22:06 | 45.80726 | -108.53730 | 3534 ft | 8 kts | 201° |
| 2026-04-25 22:06 | 45.80686 | -108.53754 | 3536 ft | 7 kts | 201° |
| 2026-04-25 22:06 | 45.80594 | -108.53758 | 3538 ft | 16 kts | 111° |
| 2026-04-25 22:07 | 45.80549 | -108.53588 | 3533 ft | 20 kts | 112° |
| 2026-04-25 22:07 | 45.80512 | -108.53458 | 3528 ft | 20 kts | 110° |
| 2026-04-25 22:07 | 45.80443 | -108.53234 | 3519 ft | 16 kts | 115° |
| 2026-04-25 22:07 | 45.80373 | -108.53136 | 3516 ft | 12 kts | 160° |
| 2026-04-25 22:08 | 45.80332 | -108.53121 | 3515 ft | 1 kts | 176° |
| 2026-04-25 22:08 | 45.80329 | -108.53121 | 3515 ft | 0 kts | 176° |